logo
Rechercher aéroport 
image banner adimage banner adimage banner ad
image banner ad

CA50 - Hughes/Malibu

Situé à Malibu, United States

ICAO - CA50, IATA -

Données fournies par Airmate  

Information générale

Coordonnées: N34°2'43" W118°41'42"
Élévation : 455 feet MSL.
Variation magnétique : 14° East
Voir autres Aéroports à California

Données opérationnelles

Special qualification required
Heure actuelle UTC:
Heure actuelle locale:
Météo à : KSMO - Santa Monica Muni ( 23 km )
METAR: KSMO 011651Z 15006KT 10SM OVC024 20/13 A2990 RMK AO2 SLP123 T02000133
TAF: KSMO 011140Z 0112/0212 VRB03KT P6SM OVC025 FM011900 23010KT P6SM SCT025 FM020300 VRB03KT P6SM OVC018 FM020900 VRB03KT P6SM OVC025
Voir NOTAMs / SUP AIP / TFR affectant cet aéroport [VIEW]
Fréquences de communication: [VIEW]

Pistes:

Coordonnées de l'aéroport

Adresse: Malibu United States

Vue satellite de CA50